sensor_id;sensor_type;location;lat;lon;timestamp;pressure;altitude;pressure_sealevel;temperature;humidity
26915;BME280;14480;52.608;13.416;2022-12-15T07:19:30;138240.75;;;-23.75;100.00
26915;BME280;14480;52.608;13.416;2022-12-15T07:24:34;138221.31;;;-23.83;100.00
26915;BME280;14480;52.608;13.416;2022-12-15T07:29:37;138207.94;;;-23.88;100.00
26915;BME280;14480;52.608;13.416;2022-12-15T07:34:42;138245.59;;;-23.73;100.00
26915;BME280;14480;52.608;13.416;2022-12-15T07:39:46;138206.72;;;-23.89;100.00
26915;BME280;14480;52.608;13.416;2022-12-15T07:44:49;138216.44;;;-23.85;100.00
26915;BME280;14480;52.608;13.416;2022-12-15T07:49:55;138203.06;;;-23.90;100.00
26915;BME280;14480;52.608;13.416;2022-12-15T07:55:00;138224.97;;;-23.81;100.00
26915;BME280;14480;52.608;13.416;2022-12-15T08:00:04;138251.72;;;-23.70;100.00
26915;BME280;14480;52.608;13.416;2022-12-15T08:05:17;138485.28;;;-22.72;100.00
26915;BME280;14480;52.608;13.416;2022-12-15T08:10:20;138552.28;;;-22.44;100.00
26915;BME280;14480;52.608;13.416;2022-12-15T08:15:24;138442.72;;;-22.90;100.00
26915;BME280;14480;52.608;13.416;2022-12-15T08:20:31;138398.88;;;-23.09;100.00
26915;BME280;14480;52.608;13.416;2022-12-15T08:25:35;138389.16;;;-23.13;100.00
26915;BME280;14480;52.608;13.416;2022-12-15T08:30:39;138411.03;;;-23.03;100.00
26915;BME280;14480;52.608;13.416;2022-12-15T08:35:44;138423.25;;;-22.98;100.00
26915;BME280;14480;52.608;13.416;2022-12-15T08:41:07;138447.59;;;-22.88;100.00
26915;BME280;14480;52.608;13.416;2022-12-15T08:46:36;138482.84;;;-22.73;100.00
26915;BME280;14480;52.608;13.416;2022-12-15T08:51:46;138507.19;;;-22.63;100.00
26915;BME280;14480;52.608;13.416;2022-12-15T08:56:52;138544.94;;;-22.48;100.00
26915;BME280;14480;52.608;13.416;2022-12-15T09:02:40;138562.00;;;-22.40;100.00
26915;BME280;14480;52.608;13.416;2022-12-15T09:07:55;138583.94;;;-22.31;100.00
26915;BME280;14480;52.608;13.416;2022-12-15T09:13:08;138620.47;;;-22.16;100.00
26915;BME280;14480;52.608;13.416;2022-12-15T09:18:12;138604.59;;;-22.23;100.00
26915;BME280;14480;52.608;13.416;2022-12-15T09:23:17;138644.84;;;-22.06;100.00
26915;BME280;14480;52.608;13.416;2022-12-15T09:28:22;138686.19;;;-21.89;100.00
26915;BME280;14480;52.608;13.416;2022-12-15T09:33:28;138732.53;;;-21.69;100.00
26915;BME280;14480;52.608;13.416;2022-12-15T09:38:37;138742.25;;;-21.65;100.00
26915;BME280;14480;52.608;13.416;2022-12-15T09:43:45;138810.56;;;-21.37;100.00
26915;BME280;14480;52.608;13.416;2022-12-15T09:48:51;138800.81;;;-21.41;100.00
26915;BME280;14480;52.608;13.416;2022-12-15T09:59:54;138850.72;;;-21.20;100.00
26915;BME280;14480;52.608;13.416;2022-12-15T10:05:02;138880.00;;;-21.08;100.00
26915;BME280;14480;52.608;13.416;2022-12-15T10:10:10;138926.38;;;-20.88;100.00
26915;BME280;14480;52.608;13.416;2022-12-15T10:15:21;139026.44;;;-20.47;100.00
26915;BME280;14480;52.608;13.416;2022-12-15T10:20:26;139063.00;;;-20.31;100.00
26915;BME280;14480;52.608;13.416;2022-12-15T10:25:31;139135.03;;;-20.01;100.00
26915;BME280;14480;52.608;13.416;2022-12-15T10:30:37;139190.00;;;-19.79;100.00
26915;BME280;14480;52.608;13.416;2022-12-15T10:35:46;139247.41;;;-19.55;100.00
26915;BME280;14480;52.608;13.416;2022-12-15T10:40:52;139328.00;;;-19.21;100.00
26915;BME280;14480;52.608;13.416;2022-12-15T10:46:06;139358.53;;;-19.08;100.00
26915;BME280;14480;52.608;13.416;2022-12-15T10:51:17;139400.06;;;-18.91;100.00
26915;BME280;14480;52.608;13.416;2022-12-15T10:56:23;139425.75;;;-18.80;100.00
26915;BME280;14480;52.608;13.416;2022-12-15T11:01:36;139456.31;;;-18.68;100.00
26915;BME280;14480;52.608;13.416;2022-12-15T11:06:40;139456.31;;;-18.68;100.00
26915;BME280;14480;52.608;13.416;2022-12-15T11:11:46;139538.19;;;-18.34;100.00
26915;BME280;14480;52.608;13.416;2022-12-15T11:17:16;139552.91;;;-18.27;100.00
26915;BME280;14480;52.608;13.416;2022-12-15T11:22:22;139557.78;;;-18.25;100.00
26915;BME280;14480;52.608;13.416;2022-12-15T11:27:31;139561.44;;;-18.24;100.00
26915;BME280;14480;52.608;13.416;2022-12-15T11:32:37;139617.72;;;-18.01;100.00
26915;BME280;14480;52.608;13.416;2022-12-15T11:37:43;139670.34;;;-17.79;100.00
26915;BME280;14480;52.608;13.416;2022-12-15T11:42:54;139721.72;;;-17.57;100.00
26915;BME280;14480;52.608;13.416;2022-12-15T11:48:08;139740.03;;;-17.50;100.00
26915;BME280;14480;52.608;13.416;2022-12-15T11:53:17;139741.25;;;-17.49;100.00
26915;BME280;14480;52.608;13.416;2022-12-15T11:58:38;139782.91;;;-17.32;100.00
26915;BME280;14480;52.608;13.416;2022-12-15T12:03:53;139791.47;;;-17.28;100.00
26915;BME280;14480;52.608;13.416;2022-12-15T12:09:09;139829.44;;;-17.13;100.00
26915;BME280;14480;52.608;13.416;2022-12-15T12:14:18;139846.56;;;-17.05;100.00
26915;BME280;14480;52.608;13.416;2022-12-15T12:19:30;139828.19;;;-17.13;100.00
26915;BME280;14480;52.608;13.416;2022-12-15T12:24:40;139882.06;;;-16.91;100.00
26915;BME280;14480;52.608;13.416;2022-12-15T12:29:50;139912.75;;;-16.78;100.00
26915;BME280;14480;52.608;13.416;2022-12-15T12:34:58;139845.34;;;-17.06;100.00
26915;BME280;14480;52.608;13.416;2022-12-15T12:40:27;139793.91;;;-17.27;100.00
26915;BME280;14480;52.608;13.416;2022-12-15T12:45:58;139779.25;;;-17.33;100.00
26915;BME280;14480;52.608;13.416;2022-12-15T12:51:10;139760.88;;;-17.41;100.00
26915;BME280;14480;52.608;13.416;2022-12-15T12:56:28;139762.09;;;-17.41;100.00
26915;BME280;14480;52.608;13.416;2022-12-15T13:01:34;139731.47;;;-17.53;100.00
26915;BME280;14480;52.608;13.416;2022-12-15T13:07:01;139718.03;;;-17.59;100.00
26915;BME280;14480;52.608;13.416;2022-12-15T13:12:32;139702.13;;;-17.65;100.00
26915;BME280;14480;52.608;13.416;2022-12-15T13:17:53;139703.34;;;-17.65;100.00
26915;BME280;14480;52.608;13.416;2022-12-15T13:28:38;139704.56;;;-17.64;100.00
26915;BME280;14480;52.608;13.416;2022-12-15T13:33:49;139718.03;;;-17.59;100.00
26915;BME280;14480;52.608;13.416;2022-12-15T13:44:28;139655.63;;;-17.85;100.00
26915;BME280;14480;52.608;13.416;2022-12-15T13:49:36;139653.19;;;-17.86;100.00
26915;BME280;14480;52.608;13.416;2022-12-15T13:54:54;139638.53;;;-17.92;100.00
26915;BME280;14480;52.608;13.416;2022-12-15T14:00:02;139616.50;;;-18.01;100.00
26915;BME280;14480;52.608;13.416;2022-12-15T14:05:19;139631.16;;;-17.95;100.00
26915;BME280;14480;52.608;13.416;2022-12-15T14:10:26;139623.84;;;-17.98;100.00
26915;BME280;14480;52.608;13.416;2022-12-15T14:15:34;139576.09;;;-18.18;100.00
26915;BME280;14480;52.608;13.416;2022-12-15T14:20:39;139570.00;;;-18.20;100.00
26915;BME280;14480;52.608;13.416;2022-12-15T14:25:50;139554.13;;;-18.27;100.00
26915;BME280;14480;52.608;13.416;2022-12-15T14:30:57;139559.00;;;-18.25;100.00
26915;BME280;14480;52.608;13.416;2022-12-15T14:36:04;139534.53;;;-18.35;100.00
26915;BME280;14480;52.608;13.416;2022-12-15T14:41:11;139501.53;;;-18.49;100.00
26915;BME280;14480;52.608;13.416;2022-12-15T14:46:22;139472.19;;;-18.61;100.00
26915;BME280;14480;52.608;13.416;2022-12-15T14:51:29;139449.00;;;-18.71;100.00
26915;BME280;14480;52.608;13.416;2022-12-15T14:56:36;139419.66;;;-18.83;100.00
26915;BME280;14480;52.608;13.416;2022-12-15T15:07:03;139362.19;;;-19.07;100.00
26915;BME280;14480;52.608;13.416;2022-12-15T15:12:12;139329.22;;;-19.21;100.00
26915;BME280;14480;52.608;13.416;2022-12-15T15:17:24;139313.31;;;-19.27;100.00
26915;BME280;14480;52.608;13.416;2022-12-15T15:22:36;139279.09;;;-19.41;100.00
26915;BME280;14480;52.608;13.416;2022-12-15T15:27:42;139258.31;;;-19.50;100.00
26915;BME280;14480;52.608;13.416;2022-12-15T15:32:51;139251.00;;;-19.53;100.00
26915;BME280;14480;52.608;13.416;2022-12-15T15:38:01;139242.47;;;-19.57;100.00
26915;BME280;14480;52.608;13.416;2022-12-15T15:43:09;139232.72;;;-19.61;100.00
26915;BME280;14480;52.608;13.416;2022-12-15T15:48:19;139200.97;;;-19.74;100.00
26915;BME280;14480;52.608;13.416;2022-12-15T15:53:26;139193.66;;;-19.77;100.00
26915;BME280;14480;52.608;13.416;2022-12-15T15:58:32;139176.53;;;-19.84;100.00
26915;BME280;14480;52.608;13.416;2022-12-15T16:03:40;139166.78;;;-19.88;100.00
26915;BME280;14480;52.608;13.416;2022-12-15T16:14:54;139125.25;;;-20.05;100.00
26915;BME280;14480;52.608;13.416;2022-12-15T16:20:05;139100.81;;;-20.16;100.00
26915;BME280;14480;52.608;13.416;2022-12-15T16:25:15;139073.97;;;-20.27;100.00
26915;BME280;14480;52.608;13.416;2022-12-15T16:30:25;139056.91;;;-20.34;100.00
26915;BME280;14480;52.608;13.416;2022-12-15T16:35:37;139037.41;;;-20.42;100.00
26915;BME280;14480;52.608;13.416;2022-12-15T16:40:51;139013.00;;;-20.52;100.00
26915;BME280;14480;52.608;13.416;2022-12-15T16:46:05;139013.00;;;-20.52;100.00
26915;BME280;14480;52.608;13.416;2022-12-15T16:51:14;139002.03;;;-20.57;100.00
26915;BME280;14480;52.608;13.416;2022-12-15T16:56:26;138998.38;;;-20.58;100.00
26915;BME280;14480;52.608;13.416;2022-12-15T17:01:48;138982.50;;;-20.65;100.00
26915;BME280;14480;52.608;13.416;2022-12-15T17:07:13;138978.84;;;-20.67;100.00
26915;BME280;14480;52.608;13.416;2022-12-15T17:12:23;138976.41;;;-20.68;100.00
26915;BME280;14480;52.608;13.416;2022-12-15T17:17:33;138978.84;;;-20.67;100.00
26915;BME280;14480;52.608;13.416;2022-12-15T17:22:42;138970.31;;;-20.70;100.00
26915;BME280;14480;52.608;13.416;2022-12-15T17:28:14;138977.63;;;-20.67;100.00
26915;BME280;14480;52.608;13.416;2022-12-15T17:33:41;138993.44;;;-20.60;100.00
26915;BME280;14480;52.608;13.416;2022-12-15T17:39:22;138981.28;;;-20.65;100.00
26915;BME280;14480;52.608;13.416;2022-12-15T17:44:30;138981.28;;;-20.65;100.00
26915;BME280;14480;52.608;13.416;2022-12-15T17:50:08;138998.38;;;-20.58;100.00
26915;BME280;14480;52.608;13.416;2022-12-15T17:55:34;139037.41;;;-20.42;100.00
26915;BME280;14480;52.608;13.416;2022-12-15T18:01:23;139058.13;;;-20.33;100.00
26915;BME280;14480;52.608;13.416;2022-12-15T18:06:33;139054.47;;;-20.35;100.00
26915;BME280;14480;52.608;13.416;2022-12-15T18:11:42;139064.22;;;-20.31;100.00
26915;BME280;14480;52.608;13.416;2022-12-15T18:16:53;139203.41;;;-19.73;100.00
26915;BME280;14480;52.608;13.416;2022-12-15T18:22:08;139292.53;;;-19.36;100.00
26915;BME280;14480;52.608;13.416;2022-12-15T18:27:18;139453.88;;;-18.69;100.00
26915;BME280;14480;52.608;13.416;2022-12-15T18:32:33;139297.41;;;-19.34;100.00
26915;BME280;14480;52.608;13.416;2022-12-15T18:37:48;139246.19;;;-19.55;100.00
26915;BME280;14480;52.608;13.416;2022-12-15T18:43:49;139139.91;;;-19.99;100.00
26915;BME280;14480;52.608;13.416;2022-12-15T19:03:45;138909.28;;;-20.96;100.00
26915;BME280;14480;52.608;13.416;2022-12-15T19:08:52;138925.16;;;-20.89;100.00
26915;BME280;14480;52.608;13.416;2022-12-15T19:13:58;138897.09;;;-21.01;100.00
26915;BME280;14480;52.608;13.416;2022-12-15T19:19:24;138903.19;;;-20.98;100.00
26915;BME280;14480;52.608;13.416;2022-12-15T19:24:51;138905.63;;;-20.97;100.00
26915;BME280;14480;52.608;13.416;2022-12-15T19:29:57;138888.56;;;-21.04;100.00
26915;BME280;14480;52.608;13.416;2022-12-15T19:35:05;138871.47;;;-21.11;100.00
26915;BME280;14480;52.608;13.416;2022-12-15T19:40:15;138864.16;;;-21.14;100.00
26915;BME280;14480;52.608;13.416;2022-12-15T19:45:21;138850.72;;;-21.20;100.00
26915;BME280;14480;52.608;13.416;2022-12-15T19:50:30;138839.78;;;-21.24;100.00
26915;BME280;14480;52.608;13.416;2022-12-15T19:55:38;138815.44;;;-21.35;100.00
26915;BME280;14480;52.608;13.416;2022-12-15T20:00:42;138821.50;;;-21.32;100.00
26915;BME280;14480;52.608;13.416;2022-12-15T20:18:09;138767.88;;;-21.54;100.00
26915;BME280;14480;52.608;13.416;2022-12-15T20:28:44;138761.78;;;-21.57;100.00
26915;BME280;14480;52.608;13.416;2022-12-15T20:34:18;138747.19;;;-21.63;100.00
26915;BME280;14480;52.608;13.416;2022-12-15T20:40:16;138732.53;;;-21.69;100.00
26915;BME280;14480;52.608;13.416;2022-12-15T20:45:21;138736.19;;;-21.68;100.00
26915;BME280;14480;52.608;13.416;2022-12-15T20:50:31;138731.31;;;-21.70;100.00
26915;BME280;14480;52.608;13.416;2022-12-15T20:55:39;138717.94;;;-21.75;100.00
26915;BME280;14480;52.608;13.416;2022-12-15T21:00:43;138720.34;;;-21.74;100.00
26915;BME280;14480;52.608;13.416;2022-12-15T21:05:49;138711.78;;;-21.78;100.00
26915;BME280;14480;52.608;13.416;2022-12-15T21:11:13;138697.19;;;-21.84;100.00
26915;BME280;14480;52.608;13.416;2022-12-15T21:16:27;138700.84;;;-21.82;100.00
26915;BME280;14480;52.608;13.416;2022-12-15T21:21:35;138693.53;;;-21.86;100.00
26915;BME280;14480;52.608;13.416;2022-12-15T21:26:39;138677.69;;;-21.92;100.00
26915;BME280;14480;52.608;13.416;2022-12-15T21:31:45;138663.09;;;-21.98;100.00
26915;BME280;14480;52.608;13.416;2022-12-15T21:36:53;138656.97;;;-22.01;100.00
26915;BME280;14480;52.608;13.416;2022-12-15T21:41:59;138637.53;;;-22.09;100.00
26915;BME280;14480;52.608;13.416;2022-12-15T21:47:04;138624.13;;;-22.14;100.00
26915;BME280;14480;52.608;13.416;2022-12-15T21:52:14;138604.59;;;-22.23;100.00
26915;BME280;14480;52.608;13.416;2022-12-15T21:57:19;138618.03;;;-22.17;100.00
26915;BME280;14480;52.608;13.416;2022-12-15T22:02:23;138597.31;;;-22.26;100.00
26915;BME280;14480;52.608;13.416;2022-12-15T22:07:32;138594.88;;;-22.27;100.00
26915;BME280;14480;52.608;13.416;2022-12-15T22:12:35;138588.81;;;-22.29;100.00
26915;BME280;14480;52.608;13.416;2022-12-15T22:17:40;138569.28;;;-22.37;100.00
26915;BME280;14480;52.608;13.416;2022-12-15T22:22:46;138554.69;;;-22.43;100.00
26915;BME280;14480;52.608;13.416;2022-12-15T22:27:50;138537.63;;;-22.51;100.00
26915;BME280;14480;52.608;13.416;2022-12-15T22:32:56;138521.78;;;-22.57;100.00
26915;BME280;14480;52.608;13.416;2022-12-15T22:38:00;138475.53;;;-22.77;100.00
